createdAt,value
2022-12-19T05:41:53.333Z,100.00
2022-12-19T05:44:56.067Z,100.00
2022-12-19T05:48:01.303Z,100.00
2022-12-19T05:51:05.376Z,100.00
2022-12-19T05:54:08.264Z,100.00
2022-12-19T05:57:10.753Z,100.00
2022-12-19T06:00:15.995Z,100.00
2022-12-19T06:03:18.676Z,100.00
2022-12-19T06:06:23.939Z,100.00
2022-12-19T06:09:26.688Z,100.00
2022-12-19T06:12:29.249Z,100.00
2022-12-19T06:15:32.201Z,100.00
2022-12-19T06:18:34.962Z,100.00
2022-12-19T06:21:42.239Z,100.00
2022-12-19T06:24:50.107Z,100.00
2022-12-19T06:27:52.664Z,100.00
2022-12-19T06:30:59.150Z,100.00
2022-12-19T06:34:02.779Z,100.00
2022-12-19T06:37:08.285Z,100.00
2022-12-19T06:40:31.578Z,100.00
2022-12-19T06:43:34.194Z,100.00
2022-12-19T06:46:37.234Z,100.00
2022-12-19T06:49:39.810Z,100.00
2022-12-19T06:52:42.322Z,100.00
2022-12-19T06:55:49.070Z,100.00
2022-12-19T06:58:51.839Z,100.00
2022-12-19T07:01:59.904Z,100.00
2022-12-19T07:05:04.344Z,100.00
2022-12-19T07:08:08.146Z,100.00
2022-12-19T07:11:10.670Z,100.00
2022-12-19T07:14:13.273Z,100.00
2022-12-19T07:17:15.771Z,100.00
2022-12-19T07:20:18.565Z,100.00
2022-12-19T07:23:21.184Z,100.00
2022-12-19T07:26:23.667Z,100.00
2022-12-19T07:29:26.759Z,100.00
2022-12-19T07:32:29.296Z,100.00
2022-12-19T07:35:31.852Z,100.00
2022-12-19T07:38:37.401Z,100.00
2022-12-19T07:41:40.223Z,100.00
2022-12-19T07:44:43.451Z,100.00
2022-12-19T07:47:46.025Z,100.00
2022-12-19T07:50:49.247Z,100.00
2022-12-19T07:53:51.935Z,100.00
2022-12-19T07:56:54.443Z,100.00
2022-12-19T07:59:56.895Z,100.00
2022-12-19T08:03:00.151Z,100.00
2022-12-19T08:06:04.305Z,100.00
2022-12-19T08:09:06.851Z,100.00
2022-12-19T08:12:10.519Z,100.00
2022-12-19T08:15:13.110Z,100.00
2022-12-19T08:18:15.645Z,100.00
2022-12-19T08:21:18.213Z,100.00
2022-12-19T08:24:20.815Z,100.00
2022-12-19T08:27:23.408Z,100.00
2022-12-19T08:30:25.968Z,100.00
2022-12-19T08:33:28.850Z,100.00
2022-12-19T08:36:31.323Z,100.00
2022-12-19T08:39:33.957Z,100.00
2022-12-19T08:42:37.129Z,100.00
2022-12-19T08:45:39.695Z,100.00
2022-12-19T08:48:42.278Z,100.00
2022-12-19T08:51:45.057Z,100.00
2022-12-19T08:54:47.682Z,99.76
2022-12-19T08:57:50.233Z,100.00
2022-12-19T09:01:03.315Z,100.00
2022-12-19T09:05:40.654Z,100.00
2022-12-19T09:07:30.936Z,100.00
2022-12-19T09:10:36.719Z,99.81
2022-12-19T09:13:39.799Z,100.00
2022-12-19T09:16:42.430Z,100.00
2022-12-19T09:19:47.434Z,99.17
2022-12-19T09:22:50.761Z,98.90
2022-12-19T09:25:54.351Z,98.35
2022-12-19T09:28:56.850Z,97.26
2022-12-19T09:31:59.419Z,97.67
2022-12-19T09:35:01.980Z,97.67
2022-12-19T09:38:04.837Z,98.06
2022-12-19T09:41:24.051Z,97.41
2022-12-19T09:44:40.143Z,98.54
2022-12-19T09:47:43.439Z,96.70
2022-12-19T09:51:10.198Z,96.25
2022-12-19T09:54:35.698Z,96.51
2022-12-19T09:58:01.447Z,96.28
2022-12-19T10:01:25.528Z,95.46
2022-12-19T10:04:28.292Z,95.36
2022-12-19T10:07:53.318Z,95.01
2022-12-19T10:12:37.359Z,94.69
2022-12-19T10:14:48.292Z,95.01
2022-12-19T10:18:23.110Z,95.59
2022-12-19T10:25:21.626Z,95.04
2022-12-19T10:29:11.772Z,95.38
2022-12-19T10:32:15.986Z,94.35
2022-12-19T10:35:19.352Z,94.41
2022-12-19T10:38:27.030Z,93.34
2022-12-19T10:41:30.852Z,93.58
2022-12-19T10:44:34.813Z,93.16
2022-12-19T10:47:37.374Z,93.72
2022-12-19T10:50:39.893Z,94.19
2022-12-19T10:53:43.860Z,93.96
2022-12-19T10:56:47.439Z,93.24
2022-12-19T11:00:00.162Z,93.48
2022-12-19T11:03:21.085Z,92.88
2022-12-19T11:06:51.487Z,92.91
2022-12-19T11:10:40.906Z,92.72
2022-12-19T11:17:31.244Z,92.86
2022-12-19T11:22:19.906Z,93.71
2022-12-19T11:27:31.079Z,93.84
2022-12-19T11:29:37.562Z,92.84
2022-12-19T11:29:43.196Z,93.94
2022-12-19T11:32:12.141Z,93.77
2022-12-19T11:34:26.373Z,93.45
2022-12-19T11:37:44.806Z,92.97
2022-12-19T11:40:50.563Z,92.28
2022-12-19T11:44:03.641Z,93.39
2022-12-19T11:47:13.625Z,93.04
2022-12-19T11:50:29.098Z,92.66
2022-12-19T11:53:36.073Z,93.11
2022-12-19T11:56:38.565Z,92.16
2022-12-19T11:59:41.065Z,92.61
2022-12-19T12:02:49.791Z,91.80
2022-12-19T12:05:52.551Z,91.00
2022-12-19T12:11:17.281Z,91.40
2022-12-19T12:18:04.876Z,91.72
2022-12-19T12:30:03.769Z,92.34
2022-12-19T12:31:17.331Z,91.92
2022-12-19T12:31:42.403Z,92.59
2022-12-19T12:31:57.033Z,91.77
2022-12-19T12:32:06.312Z,91.75
2022-12-19T12:35:48.614Z,93.16
2022-12-19T12:41:13.862Z,93.29
2022-12-19T12:44:32.606Z,92.35
2022-12-19T12:47:36.336Z,92.48
2022-12-19T12:50:38.819Z,92.67
2022-12-19T12:53:43.227Z,93.09
2022-12-19T12:56:45.692Z,93.18
2022-12-19T12:59:48.256Z,93.37
2022-12-19T13:03:16.272Z,93.56
2022-12-19T13:06:22.646Z,93.48
2022-12-19T13:09:27.211Z,93.54
2022-12-19T13:12:48.269Z,93.45
2022-12-19T13:15:50.815Z,93.93
2022-12-19T13:19:28.834Z,94.14
2022-12-19T13:22:32.483Z,94.61
2022-12-19T13:25:34.939Z,94.29
2022-12-19T13:28:39.170Z,94.44
2022-12-19T13:31:41.702Z,94.89
2022-12-19T13:35:59.407Z,95.20
2022-12-19T13:39:59.967Z,95.08
2022-12-19T13:42:07.622Z,95.02
2022-12-19T13:45:14.426Z,95.43
2022-12-19T13:48:20.508Z,95.50
2022-12-19T13:51:23.247Z,95.55
2022-12-19T13:54:29.121Z,95.66
2022-12-19T13:57:34.629Z,96.20
2022-12-19T14:00:41.432Z,96.68
2022-12-19T14:03:44.574Z,97.05
2022-12-19T14:06:47.278Z,97.40
2022-12-19T14:11:29.535Z,96.93
2022-12-19T14:13:36.918Z,97.15
2022-12-19T14:16:54.587Z,97.41
2022-12-19T14:20:06.800Z,97.92
2022-12-19T14:23:26.004Z,98.25
2022-12-19T14:28:24.936Z,97.99
2022-12-19T14:30:32.569Z,98.37
2022-12-19T14:33:45.483Z,98.48
2022-12-19T14:36:58.446Z,98.19
2022-12-19T14:40:01.802Z,98.94
2022-12-19T14:43:59.896Z,99.10
2022-12-19T14:54:15.602Z,99.16
2022-12-19T14:54:24.010Z,99.33
2022-12-19T14:56:08.522Z,99.88
2022-12-19T14:58:52.323Z,100.00
2022-12-19T15:01:38.819Z,100.00
2022-12-19T15:05:00.461Z,100.00
2022-12-19T15:08:03.180Z,100.00
2022-12-19T15:11:42.925Z,100.00
2022-12-19T15:14:59.189Z,100.00
2022-12-19T15:18:03.853Z,100.00
2022-12-19T15:21:12.874Z,100.00
2022-12-19T15:24:15.406Z,100.00
2022-12-19T15:27:18.047Z,100.00
2022-12-19T15:30:21.670Z,100.00
2022-12-19T15:33:24.265Z,100.00
2022-12-19T15:36:26.851Z,100.00
2022-12-19T15:39:32.033Z,100.00
2022-12-19T15:42:35.092Z,100.00
2022-12-19T15:45:37.666Z,100.00
2022-12-19T15:48:41.714Z,100.00
2022-12-19T15:51:44.569Z,100.00
2022-12-19T15:54:48.370Z,100.00
2022-12-19T15:57:54.025Z,100.00
2022-12-19T16:00:58.795Z,100.00
2022-12-19T16:04:03.558Z,100.00
2022-12-19T16:07:15.515Z,100.00
2022-12-19T16:10:18.267Z,100.00
2022-12-19T16:13:30.756Z,100.00
2022-12-19T16:16:33.346Z,100.00
2022-12-19T16:19:35.989Z,100.00
2022-12-19T16:22:39.008Z,100.00
2022-12-19T16:25:50.523Z,100.00
